sensor_id;sensor_type;location;lat;lon;timestamp;P1;durP1;ratioP1;P2;durP2;ratioP2
19780;SDS011;10050;55.492;13.506;2022-12-20T00:01:52;61.63;;;16.80;;
19780;SDS011;10050;55.492;13.506;2022-12-20T00:04:18;61.83;;;16.93;;
19780;SDS011;10050;55.492;13.506;2022-12-20T00:06:43;46.07;;;16.90;;
19780;SDS011;10050;55.492;13.506;2022-12-20T00:09:10;43.77;;;17.13;;
19780;SDS011;10050;55.492;13.506;2022-12-20T00:11:37;46.70;;;15.70;;
19780;SDS011;10050;55.492;13.506;2022-12-20T00:14:05;47.57;;;17.10;;
19780;SDS011;10050;55.492;13.506;2022-12-20T00:16:31;52.97;;;18.13;;
19780;SDS011;10050;55.492;13.506;2022-12-20T00:18:58;54.37;;;18.37;;
19780;SDS011;10050;55.492;13.506;2022-12-20T00:21:26;57.80;;;18.70;;
19780;SDS011;10050;55.492;13.506;2022-12-20T00:23:52;77.57;;;20.63;;
19780;SDS011;10050;55.492;13.506;2022-12-20T00:26:19;67.07;;;20.60;;
19780;SDS011;10050;55.492;13.506;2022-12-20T00:28:47;73.63;;;22.83;;
19780;SDS011;10050;55.492;13.506;2022-12-20T00:31:13;93.13;;;24.73;;
19780;SDS011;10050;55.492;13.506;2022-12-20T00:33:43;76.90;;;25.37;;
19780;SDS011;10050;55.492;13.506;2022-12-20T00:36:10;65.03;;;23.23;;
19780;SDS011;10050;55.492;13.506;2022-12-20T00:38:36;77.33;;;24.47;;
19780;SDS011;10050;55.492;13.506;2022-12-20T00:41:06;65.10;;;23.43;;
19780;SDS011;10050;55.492;13.506;2022-12-20T00:43:33;67.10;;;23.03;;
19780;SDS011;10050;55.492;13.506;2022-12-20T00:46:00;71.03;;;23.47;;
19780;SDS011;10050;55.492;13.506;2022-12-20T00:48:26;59.23;;;23.07;;
19780;SDS011;10050;55.492;13.506;2022-12-20T00:50:57;68.17;;;25.30;;
19780;SDS011;10050;55.492;13.506;2022-12-20T00:53:27;63.30;;;24.00;;
19780;SDS011;10050;55.492;13.506;2022-12-20T00:55:54;71.43;;;24.47;;
19780;SDS011;10050;55.492;13.506;2022-12-20T00:58:19;60.20;;;23.37;;
19780;SDS011;10050;55.492;13.506;2022-12-20T01:00:45;66.40;;;25.23;;
19780;SDS011;10050;55.492;13.506;2022-12-20T01:03:11;59.13;;;24.03;;
19780;SDS011;10050;55.492;13.506;2022-12-20T01:05:37;75.20;;;24.93;;
19780;SDS011;10050;55.492;13.506;2022-12-20T01:08:03;67.17;;;24.93;;
19780;SDS011;10050;55.492;13.506;2022-12-20T01:10:29;64.13;;;24.43;;
19780;SDS011;10050;55.492;13.506;2022-12-20T01:12:55;60.30;;;23.90;;
19780;SDS011;10050;55.492;13.506;2022-12-20T01:15:21;70.73;;;23.47;;
19780;SDS011;10050;55.492;13.506;2022-12-20T01:17:47;63.00;;;22.53;;
19780;SDS011;10050;55.492;13.506;2022-12-20T01:20:13;54.37;;;22.87;;
19780;SDS011;10050;55.492;13.506;2022-12-20T01:22:38;70.73;;;25.83;;
19780;SDS011;10050;55.492;13.506;2022-12-20T01:25:04;57.13;;;23.00;;
19780;SDS011;10050;55.492;13.506;2022-12-20T01:27:30;57.23;;;23.63;;
19780;SDS011;10050;55.492;13.506;2022-12-20T01:29:56;58.80;;;22.23;;
19780;SDS011;10050;55.492;13.506;2022-12-20T01:32:22;65.03;;;23.87;;
19780;SDS011;10050;55.492;13.506;2022-12-20T01:34:47;62.70;;;23.03;;
19780;SDS011;10050;55.492;13.506;2022-12-20T01:37:13;62.97;;;23.93;;
19780;SDS011;10050;55.492;13.506;2022-12-20T01:39:38;49.10;;;21.50;;
19780;SDS011;10050;55.492;13.506;2022-12-20T01:42:04;58.13;;;21.20;;
19780;SDS011;10050;55.492;13.506;2022-12-20T01:46:55;58.33;;;22.70;;
19780;SDS011;10050;55.492;13.506;2022-12-20T01:49:23;57.03;;;21.10;;
19780;SDS011;10050;55.492;13.506;2022-12-20T01:52:00;49.30;;;20.93;;
19780;SDS011;10050;55.492;13.506;2022-12-20T01:54:50;52.33;;;21.47;;
19780;SDS011;10050;55.492;13.506;2022-12-20T01:57:21;49.40;;;20.83;;
19780;SDS011;10050;55.492;13.506;2022-12-20T01:59:52;49.73;;;20.60;;
19780;SDS011;10050;55.492;13.506;2022-12-20T02:02:19;48.73;;;20.83;;
19780;SDS011;10050;55.492;13.506;2022-12-20T02:04:45;48.93;;;20.43;;
19780;SDS011;10050;55.492;13.506;2022-12-20T02:07:11;50.93;;;21.53;;
19780;SDS011;10050;55.492;13.506;2022-12-20T02:09:42;51.47;;;20.37;;
19780;SDS011;10050;55.492;13.506;2022-12-20T02:12:11;45.57;;;20.50;;
19780;SDS011;10050;55.492;13.506;2022-12-20T02:29:01;48.60;;;20.13;;
19780;SDS011;10050;55.492;13.506;2022-12-20T02:31:32;47.90;;;21.10;;
19780;SDS011;10050;55.492;13.506;2022-12-20T02:34:02;46.20;;;21.40;;
19780;SDS011;10050;55.492;13.506;2022-12-20T02:36:31;52.27;;;22.43;;
19780;SDS011;10050;55.492;13.506;2022-12-20T02:38:57;45.73;;;20.70;;
19780;SDS011;10050;55.492;13.506;2022-12-20T02:41:27;46.27;;;20.47;;
19780;SDS011;10050;55.492;13.506;2022-12-20T02:43:57;40.93;;;20.63;;
19780;SDS011;10050;55.492;13.506;2022-12-20T02:46:46;45.20;;;20.13;;
19780;SDS011;10050;55.492;13.506;2022-12-20T02:49:15;47.30;;;20.90;;
19780;SDS011;10050;55.492;13.506;2022-12-20T02:51:43;41.33;;;19.67;;
19780;SDS011;10050;55.492;13.506;2022-12-20T02:54:11;44.47;;;19.37;;
19780;SDS011;10050;55.492;13.506;2022-12-20T02:56:39;36.33;;;18.70;;
19780;SDS011;10050;55.492;13.506;2022-12-20T02:59:14;43.77;;;20.20;;
19780;SDS011;10050;55.492;13.506;2022-12-20T03:01:49;50.53;;;20.20;;
19780;SDS011;10050;55.492;13.506;2022-12-20T03:04:17;45.90;;;20.57;;
19780;SDS011;10050;55.492;13.506;2022-12-20T03:07:06;46.13;;;19.93;;
19780;SDS011;10050;55.492;13.506;2022-12-20T03:09:36;42.57;;;19.53;;
19780;SDS011;10050;55.492;13.506;2022-12-20T03:12:03;43.33;;;20.57;;
19780;SDS011;10050;55.492;13.506;2022-12-20T03:14:30;42.33;;;20.77;;
19780;SDS011;10050;55.492;13.506;2022-12-20T03:16:55;48.63;;;22.23;;
19780;SDS011;10050;55.492;13.506;2022-12-20T03:19:21;48.97;;;21.20;;
19780;SDS011;10050;55.492;13.506;2022-12-20T03:21:47;46.47;;;20.80;;
19780;SDS011;10050;55.492;13.506;2022-12-20T03:24:13;48.97;;;21.07;;
19780;SDS011;10050;55.492;13.506;2022-12-20T03:26:39;43.47;;;20.77;;
19780;SDS011;10050;55.492;13.506;2022-12-20T03:29:05;40.90;;;19.37;;
19780;SDS011;10050;55.492;13.506;2022-12-20T03:31:30;44.73;;;20.60;;
19780;SDS011;10050;55.492;13.506;2022-12-20T03:33:56;43.10;;;20.00;;
19780;SDS011;10050;55.492;13.506;2022-12-20T03:36:22;40.43;;;20.60;;
19780;SDS011;10050;55.492;13.506;2022-12-20T03:38:49;43.97;;;20.50;;
19780;SDS011;10050;55.492;13.506;2022-12-20T03:41:15;46.43;;;20.77;;
19780;SDS011;10050;55.492;13.506;2022-12-20T03:43:41;45.40;;;19.87;;
19780;SDS011;10050;55.492;13.506;2022-12-20T03:46:06;46.37;;;20.83;;
19780;SDS011;10050;55.492;13.506;2022-12-20T03:48:32;53.93;;;22.13;;
19780;SDS011;10050;55.492;13.506;2022-12-20T03:50:58;49.27;;;20.83;;
19780;SDS011;10050;55.492;13.506;2022-12-20T03:53:23;57.50;;;24.40;;
19780;SDS011;10050;55.492;13.506;2022-12-20T03:55:49;52.30;;;21.77;;
19780;SDS011;10050;55.492;13.506;2022-12-20T03:58:15;51.27;;;21.67;;
19780;SDS011;10050;55.492;13.506;2022-12-20T04:00:40;51.67;;;21.83;;
19780;SDS011;10050;55.492;13.506;2022-12-20T04:03:06;59.07;;;22.23;;
19780;SDS011;10050;55.492;13.506;2022-12-20T04:05:32;45.10;;;20.57;;
19780;SDS011;10050;55.492;13.506;2022-12-20T04:07:57;49.50;;;20.90;;
19780;SDS011;10050;55.492;13.506;2022-12-20T04:10:23;47.90;;;22.00;;
19780;SDS011;10050;55.492;13.506;2022-12-20T04:12:48;39.30;;;19.43;;
19780;SDS011;10050;55.492;13.506;2022-12-20T04:15:14;41.70;;;19.60;;
19780;SDS011;10050;55.492;13.506;2022-12-20T04:17:40;47.53;;;20.53;;
19780;SDS011;10050;55.492;13.506;2022-12-20T04:20:05;36.77;;;18.43;;
19780;SDS011;10050;55.492;13.506;2022-12-20T04:22:47;43.80;;;19.67;;
19780;SDS011;10050;55.492;13.506;2022-12-20T04:25:14;40.77;;;19.87;;
19780;SDS011;10050;55.492;13.506;2022-12-20T04:27:42;41.97;;;19.73;;
19780;SDS011;10050;55.492;13.506;2022-12-20T04:30:09;39.40;;;20.57;;
19780;SDS011;10050;55.492;13.506;2022-12-20T04:32:35;39.40;;;19.07;;
19780;SDS011;10050;55.492;13.506;2022-12-20T04:35:01;45.47;;;19.60;;
19780;SDS011;10050;55.492;13.506;2022-12-20T04:37:28;44.77;;;20.00;;
19780;SDS011;10050;55.492;13.506;2022-12-20T04:39:54;41.07;;;19.97;;
19780;SDS011;10050;55.492;13.506;2022-12-20T04:42:20;42.17;;;19.07;;
19780;SDS011;10050;55.492;13.506;2022-12-20T04:44:46;43.27;;;19.90;;
19780;SDS011;10050;55.492;13.506;2022-12-20T04:47:11;43.47;;;19.77;;
19780;SDS011;10050;55.492;13.506;2022-12-20T04:49:37;41.20;;;19.90;;
19780;SDS011;10050;55.492;13.506;2022-12-20T04:52:03;40.10;;;20.90;;
19780;SDS011;10050;55.492;13.506;2022-12-20T04:54:47;40.90;;;18.77;;
19780;SDS011;10050;55.492;13.506;2022-12-20T04:57:13;39.47;;;19.63;;
19780;SDS011;10050;55.492;13.506;2022-12-20T04:59:38;40.73;;;20.20;;
19780;SDS011;10050;55.492;13.506;2022-12-20T05:02:04;39.60;;;20.93;;
19780;SDS011;10050;55.492;13.506;2022-12-20T05:04:29;35.13;;;19.47;;
19780;SDS011;10050;55.492;13.506;2022-12-20T05:06:55;39.83;;;20.57;;
19780;SDS011;10050;55.492;13.506;2022-12-20T05:09:21;46.20;;;20.37;;
19780;SDS011;10050;55.492;13.506;2022-12-20T05:11:46;42.23;;;19.67;;
19780;SDS011;10050;55.492;13.506;2022-12-20T05:14:12;36.50;;;18.70;;
19780;SDS011;10050;55.492;13.506;2022-12-20T05:16:38;43.87;;;19.33;;
19780;SDS011;10050;55.492;13.506;2022-12-20T05:19:03;45.27;;;19.80;;
19780;SDS011;10050;55.492;13.506;2022-12-20T05:21:29;45.20;;;20.43;;
19780;SDS011;10050;55.492;13.506;2022-12-20T05:24:13;38.60;;;19.03;;
19780;SDS011;10050;55.492;13.506;2022-12-20T05:26:57;41.13;;;20.27;;
19780;SDS011;10050;55.492;13.506;2022-12-20T05:29:23;39.83;;;18.97;;
19780;SDS011;10050;55.492;13.506;2022-12-20T05:31:49;40.13;;;19.47;;
19780;SDS011;10050;55.492;13.506;2022-12-20T05:34:14;46.17;;;19.57;;
19780;SDS011;10050;55.492;13.506;2022-12-20T05:36:40;43.47;;;20.00;;
19780;SDS011;10050;55.492;13.506;2022-12-20T05:39:06;39.43;;;18.80;;
19780;SDS011;10050;55.492;13.506;2022-12-20T05:41:31;40.50;;;19.80;;
19780;SDS011;10050;55.492;13.506;2022-12-20T05:43:57;39.73;;;19.90;;
19780;SDS011;10050;55.492;13.506;2022-12-20T05:46:22;42.53;;;19.20;;
19780;SDS011;10050;55.492;13.506;2022-12-20T05:48:48;38.87;;;19.60;;
19780;SDS011;10050;55.492;13.506;2022-12-20T05:51:14;40.73;;;19.20;;
19780;SDS011;10050;55.492;13.506;2022-12-20T05:53:40;36.93;;;18.80;;
19780;SDS011;10050;55.492;13.506;2022-12-20T05:56:06;45.80;;;20.00;;
19780;SDS011;10050;55.492;13.506;2022-12-20T05:58:32;36.73;;;18.67;;
19780;SDS011;10050;55.492;13.506;2022-12-20T06:01:01;43.17;;;19.77;;
19780;SDS011;10050;55.492;13.506;2022-12-20T06:03:28;38.67;;;19.27;;
19780;SDS011;10050;55.492;13.506;2022-12-20T06:05:53;44.73;;;19.57;;
19780;SDS011;10050;55.492;13.506;2022-12-20T06:08:19;40.67;;;19.20;;
19780;SDS011;10050;55.492;13.506;2022-12-20T06:10:47;40.53;;;18.33;;
19780;SDS011;10050;55.492;13.506;2022-12-20T06:13:13;35.93;;;19.10;;
19780;SDS011;10050;55.492;13.506;2022-12-20T06:15:39;40.90;;;20.07;;
19780;SDS011;10050;55.492;13.506;2022-12-20T06:18:05;44.93;;;19.37;;
19780;SDS011;10050;55.492;13.506;2022-12-20T06:20:32;45.17;;;19.47;;
19780;SDS011;10050;55.492;13.506;2022-12-20T06:22:58;40.33;;;19.83;;
19780;SDS011;10050;55.492;13.506;2022-12-20T06:25:24;38.80;;;18.30;;
19780;SDS011;10050;55.492;13.506;2022-12-20T06:27:50;41.40;;;18.57;;
19780;SDS011;10050;55.492;13.506;2022-12-20T06:30:16;36.77;;;19.03;;
19780;SDS011;10050;55.492;13.506;2022-12-20T06:32:42;41.83;;;18.40;;
19780;SDS011;10050;55.492;13.506;2022-12-20T06:35:07;35.83;;;18.83;;
19780;SDS011;10050;55.492;13.506;2022-12-20T06:37:33;34.20;;;17.87;;
19780;SDS011;10050;55.492;13.506;2022-12-20T06:40:00;34.30;;;18.60;;
19780;SDS011;10050;55.492;13.506;2022-12-20T06:42:26;36.13;;;17.27;;
19780;SDS011;10050;55.492;13.506;2022-12-20T06:44:52;36.33;;;18.37;;
19780;SDS011;10050;55.492;13.506;2022-12-20T06:47:17;33.97;;;17.43;;
19780;SDS011;10050;55.492;13.506;2022-12-20T06:49:43;33.97;;;16.87;;
19780;SDS011;10050;55.492;13.506;2022-12-20T06:52:08;32.13;;;18.27;;
19780;SDS011;10050;55.492;13.506;2022-12-20T06:54:34;36.33;;;18.20;;
19780;SDS011;10050;55.492;13.506;2022-12-20T06:57:00;35.50;;;18.33;;
19780;SDS011;10050;55.492;13.506;2022-12-20T06:59:25;35.43;;;17.97;;
19780;SDS011;10050;55.492;13.506;2022-12-20T07:01:51;35.03;;;18.30;;
19780;SDS011;10050;55.492;13.506;2022-12-20T07:04:16;44.33;;;19.20;;
19780;SDS011;10050;55.492;13.506;2022-12-20T07:06:42;37.50;;;19.67;;
19780;SDS011;10050;55.492;13.506;2022-12-20T07:09:07;38.90;;;18.80;;
19780;SDS011;10050;55.492;13.506;2022-12-20T07:11:33;33.50;;;18.47;;
19780;SDS011;10050;55.492;13.506;2022-12-20T07:13:59;38.57;;;18.90;;
19780;SDS011;10050;55.492;13.506;2022-12-20T07:16:24;38.30;;;18.43;;
19780;SDS011;10050;55.492;13.506;2022-12-20T07:18:51;39.20;;;18.50;;
19780;SDS011;10050;55.492;13.506;2022-12-20T07:21:18;38.53;;;19.43;;
19780;SDS011;10050;55.492;13.506;2022-12-20T07:23:44;37.90;;;18.33;;
19780;SDS011;10050;55.492;13.506;2022-12-20T07:26:11;38.60;;;19.60;;
19780;SDS011;10050;55.492;13.506;2022-12-20T07:28:37;35.90;;;20.00;;
19780;SDS011;10050;55.492;13.506;2022-12-20T07:31:03;38.53;;;20.33;;
19780;SDS011;10050;55.492;13.506;2022-12-20T07:33:29;35.37;;;18.67;;
19780;SDS011;10050;55.492;13.506;2022-12-20T07:36:02;42.77;;;19.40;;
19780;SDS011;10050;55.492;13.506;2022-12-20T07:38:30;37.37;;;17.73;;
19780;SDS011;10050;55.492;13.506;2022-12-20T07:40:55;45.17;;;20.60;;
19780;SDS011;10050;55.492;13.506;2022-12-20T07:43:21;38.80;;;19.03;;
19780;SDS011;10050;55.492;13.506;2022-12-20T07:45:47;38.43;;;18.80;;
19780;SDS011;10050;55.492;13.506;2022-12-20T07:48:13;36.80;;;19.43;;
19780;SDS011;10050;55.492;13.506;2022-12-20T07:50:38;41.97;;;19.80;;
19780;SDS011;10050;55.492;13.506;2022-12-20T07:53:05;37.50;;;19.13;;
19780;SDS011;10050;55.492;13.506;2022-12-20T07:55:33;35.47;;;18.10;;
19780;SDS011;10050;55.492;13.506;2022-12-20T07:58:01;34.53;;;18.17;;
19780;SDS011;10050;55.492;13.506;2022-12-20T08:00:30;36.93;;;19.30;;
19780;SDS011;10050;55.492;13.506;2022-12-20T08:03:00;41.47;;;17.77;;
19780;SDS011;10050;55.492;13.506;2022-12-20T08:05:34;41.27;;;19.50;;
19780;SDS011;10050;55.492;13.506;2022-12-20T08:08:02;39.27;;;18.50;;
19780;SDS011;10050;55.492;13.506;2022-12-20T08:10:29;39.03;;;19.20;;
19780;SDS011;10050;55.492;13.506;2022-12-20T08:12:55;33.80;;;17.53;;
19780;SDS011;10050;55.492;13.506;2022-12-20T08:15:22;33.13;;;18.10;;
19780;SDS011;10050;55.492;13.506;2022-12-20T08:17:48;36.93;;;18.90;;
19780;SDS011;10050;55.492;13.506;2022-12-20T08:20:14;38.17;;;19.60;;
19780;SDS011;10050;55.492;13.506;2022-12-20T08:22:40;35.20;;;17.60;;
19780;SDS011;10050;55.492;13.506;2022-12-20T08:25:09;31.83;;;17.13;;
19780;SDS011;10050;55.492;13.506;2022-12-20T08:27:35;33.60;;;17.03;;
19780;SDS011;10050;55.492;13.506;2022-12-20T08:30:02;33.33;;;16.60;;
19780;SDS011;10050;55.492;13.506;2022-12-20T08:32:28;31.47;;;15.50;;
19780;SDS011;10050;55.492;13.506;2022-12-20T08:34:54;32.13;;;15.37;;
19780;SDS011;10050;55.492;13.506;2022-12-20T08:37:19;29.57;;;15.20;;
19780;SDS011;10050;55.492;13.506;2022-12-20T08:39:45;28.77;;;14.83;;
19780;SDS011;10050;55.492;13.506;2022-12-20T08:42:11;30.80;;;16.03;;
19780;SDS011;10050;55.492;13.506;2022-12-20T08:44:36;27.17;;;15.40;;
19780;SDS011;10050;55.492;13.506;2022-12-20T08:47:02;31.80;;;15.43;;
19780;SDS011;10050;55.492;13.506;2022-12-20T08:49:28;28.53;;;15.70;;
19780;SDS011;10050;55.492;13.506;2022-12-20T08:51:53;29.77;;;15.43;;
19780;SDS011;10050;55.492;13.506;2022-12-20T08:54:19;29.50;;;15.87;;
19780;SDS011;10050;55.492;13.506;2022-12-20T08:56:45;35.17;;;15.73;;
19780;SDS011;10050;55.492;13.506;2022-12-20T08:59:10;32.37;;;16.50;;
19780;SDS011;10050;55.492;13.506;2022-12-20T09:01:36;32.27;;;15.90;;
19780;SDS011;10050;55.492;13.506;2022-12-20T09:04:02;29.73;;;15.77;;
19780;SDS011;10050;55.492;13.506;2022-12-20T09:06:28;36.47;;;17.77;;
19780;SDS011;10050;55.492;13.506;2022-12-20T09:08:54;36.00;;;16.33;;
19780;SDS011;10050;55.492;13.506;2022-12-20T09:11:21;35.00;;;15.67;;
19780;SDS011;10050;55.492;13.506;2022-12-20T09:13:49;31.83;;;16.00;;
19780;SDS011;10050;55.492;13.506;2022-12-20T09:16:16;29.47;;;15.80;;
19780;SDS011;10050;55.492;13.506;2022-12-20T09:18:51;32.70;;;16.63;;
19780;SDS011;10050;55.492;13.506;2022-12-20T09:21:19;29.17;;;14.67;;
19780;SDS011;10050;55.492;13.506;2022-12-20T09:23:45;29.83;;;14.93;;
19780;SDS011;10050;55.492;13.506;2022-12-20T09:26:14;33.93;;;15.03;;
19780;SDS011;10050;55.492;13.506;2022-12-20T09:28:41;32.13;;;14.70;;
19780;SDS011;10050;55.492;13.506;2022-12-20T09:31:09;33.27;;;15.10;;
19780;SDS011;10050;55.492;13.506;2022-12-20T09:33:39;30.53;;;14.60;;
19780;SDS011;10050;55.492;13.506;2022-12-20T09:36:05;30.53;;;16.10;;
19780;SDS011;10050;55.492;13.506;2022-12-20T09:38:34;30.97;;;14.23;;
19780;SDS011;10050;55.492;13.506;2022-12-20T09:41:02;30.97;;;15.77;;
19780;SDS011;10050;55.492;13.506;2022-12-20T09:43:29;29.63;;;14.17;;
19780;SDS011;10050;55.492;13.506;2022-12-20T09:45:58;31.07;;;15.87;;
19780;SDS011;10050;55.492;13.506;2022-12-20T09:48:36;33.07;;;16.93;;
19780;SDS011;10050;55.492;13.506;2022-12-20T09:56:27;33.97;;;16.97;;
19780;SDS011;10050;55.492;13.506;2022-12-20T09:59:01;40.13;;;17.47;;
19780;SDS011;10050;55.492;13.506;2022-12-20T10:01:30;38.33;;;16.87;;
19780;SDS011;10050;55.492;13.506;2022-12-20T10:03:58;44.37;;;17.33;;
19780;SDS011;10050;55.492;13.506;2022-12-20T10:14:52;34.37;;;16.73;;
19780;SDS011;10050;55.492;13.506;2022-12-20T10:17:45;37.00;;;16.50;;
19780;SDS011;10050;55.492;13.506;2022-12-20T10:20:59;35.73;;;17.30;;
19780;SDS011;10050;55.492;13.506;2022-12-20T10:25:57;33.73;;;16.70;;
19780;SDS011;10050;55.492;13.506;2022-12-20T10:28:25;40.53;;;17.53;;
19780;SDS011;10050;55.492;13.506;2022-12-20T10:31:20;43.20;;;17.30;;
19780;SDS011;10050;55.492;13.506;2022-12-20T10:33:44;32.87;;;15.87;;
19780;SDS011;10050;55.492;13.506;2022-12-20T10:38:56;32.10;;;17.03;;
19780;SDS011;10050;55.492;13.506;2022-12-20T10:41:45;38.40;;;16.97;;
19780;SDS011;10050;55.492;13.506;2022-12-20T10:46:46;31.97;;;16.37;;
19780;SDS011;10050;55.492;13.506;2022-12-20T10:49:22;36.40;;;17.10;;
19780;SDS011;10050;55.492;13.506;2022-12-20T10:51:55;41.23;;;17.47;;
19780;SDS011;10050;55.492;13.506;2022-12-20T10:57:00;35.43;;;17.13;;
19780;SDS011;10050;55.492;13.506;2022-12-20T10:59:36;33.83;;;16.20;;
19780;SDS011;10050;55.492;13.506;2022-12-20T11:07:37;28.27;;;16.23;;
19780;SDS011;10050;55.492;13.506;2022-12-20T11:10:20;31.33;;;15.73;;
19780;SDS011;10050;55.492;13.506;2022-12-20T11:12:59;38.57;;;16.30;;
19780;SDS011;10050;55.492;13.506;2022-12-20T11:15:29;31.53;;;15.80;;
19780;SDS011;10050;55.492;13.506;2022-12-20T11:18:07;38.27;;;17.17;;
19780;SDS011;10050;55.492;13.506;2022-12-20T11:26:49;34.60;;;16.93;;
19780;SDS011;10050;55.492;13.506;2022-12-20T11:39:50;35.10;;;17.07;;
19780;SDS011;10050;55.492;13.506;2022-12-20T11:42:45;39.27;;;16.53;;
19780;SDS011;10050;55.492;13.506;2022-12-20T11:53:26;30.57;;;15.43;;
19780;SDS011;10050;55.492;13.506;2022-12-20T11:55:55;34.17;;;16.77;;
19780;SDS011;10050;55.492;13.506;2022-12-20T11:58:29;36.33;;;17.37;;
19780;SDS011;10050;55.492;13.506;2022-12-20T12:01:20;35.47;;;16.20;;
19780;SDS011;10050;55.492;13.506;2022-12-20T12:06:47;34.50;;;16.37;;
19780;SDS011;10050;55.492;13.506;2022-12-20T12:12:14;34.00;;;17.40;;
19780;SDS011;10050;55.492;13.506;2022-12-20T12:15:19;43.63;;;23.20;;
19780;SDS011;10050;55.492;13.506;2022-12-20T12:23:15;43.53;;;19.40;;
19780;SDS011;10050;55.492;13.506;2022-12-20T12:25:45;43.87;;;20.93;;
19780;SDS011;10050;55.492;13.506;2022-12-20T12:28:11;38.17;;;19.10;;
19780;SDS011;10050;55.492;13.506;2022-12-20T12:30:40;38.67;;;18.73;;
19780;SDS011;10050;55.492;13.506;2022-12-20T12:33:18;39.37;;;17.60;;
19780;SDS011;10050;55.492;13.506;2022-12-20T12:43:46;43.77;;;18.63;;
19780;SDS011;10050;55.492;13.506;2022-12-20T12:46:25;33.73;;;17.00;;
19780;SDS011;10050;55.492;13.506;2022-12-20T12:49:01;38.40;;;17.53;;
19780;SDS011;10050;55.492;13.506;2022-12-20T12:51:40;38.30;;;18.77;;
19780;SDS011;10050;55.492;13.506;2022-12-20T12:56:47;32.43;;;17.37;;
19780;SDS011;10050;55.492;13.506;2022-12-20T13:07:39;35.87;;;17.00;;
19780;SDS011;10050;55.492;13.506;2022-12-20T13:17:48;33.53;;;15.93;;
19780;SDS011;10050;55.492;13.506;2022-12-20T13:20:28;36.33;;;17.20;;
19780;SDS011;10050;55.492;13.506;2022-12-20T13:25:37;33.73;;;16.70;;
19780;SDS011;10050;55.492;13.506;2022-12-20T13:41:24;28.77;;;15.63;;
19780;SDS011;10050;55.492;13.506;2022-12-20T13:43:51;26.43;;;15.53;;
19780;SDS011;10050;55.492;13.506;2022-12-20T13:46:21;38.30;;;16.73;;
19780;SDS011;10050;55.492;13.506;2022-12-20T13:49:01;30.70;;;15.33;;
19780;SDS011;10050;55.492;13.506;2022-12-20T13:51:28;36.50;;;15.47;;
19780;SDS011;10050;55.492;13.506;2022-12-20T13:58:54;27.83;;;15.30;;
19780;SDS011;10050;55.492;13.506;2022-12-20T14:01:22;32.33;;;16.83;;
19780;SDS011;10050;55.492;13.506;2022-12-20T14:03:49;29.20;;;14.90;;
19780;SDS011;10050;55.492;13.506;2022-12-20T14:06:17;29.20;;;14.80;;
19780;SDS011;10050;55.492;13.506;2022-12-20T14:08:48;30.47;;;16.60;;
19780;SDS011;10050;55.492;13.506;2022-12-20T14:11:19;29.50;;;15.53;;
19780;SDS011;10050;55.492;13.506;2022-12-20T14:13:55;26.00;;;16.87;;
19780;SDS011;10050;55.492;13.506;2022-12-20T14:16:26;27.77;;;15.10;;
19780;SDS011;10050;55.492;13.506;2022-12-20T14:21:27;29.50;;;15.67;;
19780;SDS011;10050;55.492;13.506;2022-12-20T14:23:54;26.80;;;14.43;;
19780;SDS011;10050;55.492;13.506;2022-12-20T14:26:29;26.67;;;14.60;;
19780;SDS011;10050;55.492;13.506;2022-12-20T14:28:59;29.80;;;15.93;;
19780;SDS011;10050;55.492;13.506;2022-12-20T14:34:04;24.17;;;14.30;;
19780;SDS011;10050;55.492;13.506;2022-12-20T14:36:30;23.07;;;13.90;;
19780;SDS011;10050;55.492;13.506;2022-12-20T14:38:57;27.50;;;15.30;;
19780;SDS011;10050;55.492;13.506;2022-12-20T14:41:34;28.37;;;14.83;;
19780;SDS011;10050;55.492;13.506;2022-12-20T14:44:19;27.87;;;14.03;;
19780;SDS011;10050;55.492;13.506;2022-12-20T14:46:47;30.03;;;15.00;;
19780;SDS011;10050;55.492;13.506;2022-12-20T14:52:11;28.20;;;15.80;;
19780;SDS011;10050;55.492;13.506;2022-12-20T15:02:41;30.20;;;17.10;;
19780;SDS011;10050;55.492;13.506;2022-12-20T15:10:39;32.53;;;18.20;;
19780;SDS011;10050;55.492;13.506;2022-12-20T15:13:13;32.80;;;17.23;;
19780;SDS011;10050;55.492;13.506;2022-12-20T15:15:40;37.20;;;19.60;;
19780;SDS011;10050;55.492;13.506;2022-12-20T15:18:10;34.60;;;18.90;;
19780;SDS011;10050;55.492;13.506;2022-12-20T15:20:40;34.33;;;17.50;;
19780;SDS011;10050;55.492;13.506;2022-12-20T15:23:11;34.50;;;17.83;;
19780;SDS011;10050;55.492;13.506;2022-12-20T15:25:41;34.53;;;17.90;;
19780;SDS011;10050;55.492;13.506;2022-12-20T15:28:18;32.43;;;17.57;;
19780;SDS011;10050;55.492;13.506;2022-12-20T15:30:46;35.30;;;17.43;;
19780;SDS011;10050;55.492;13.506;2022-12-20T15:33:17;37.03;;;17.83;;
19780;SDS011;10050;55.492;13.506;2022-12-20T15:35:46;29.00;;;16.37;;
19780;SDS011;10050;55.492;13.506;2022-12-20T15:38:13;30.33;;;17.27;;
19780;SDS011;10050;55.492;13.506;2022-12-20T15:40:44;102.03;;;60.00;;
19780;SDS011;10050;55.492;13.506;2022-12-20T15:43:12;40.73;;;23.20;;
19780;SDS011;10050;55.492;13.506;2022-12-20T15:45:39;32.03;;;19.43;;
19780;SDS011;10050;55.492;13.506;2022-12-20T15:48:11;40.97;;;20.10;;
19780;SDS011;10050;55.492;13.506;2022-12-20T15:50:40;143.63;;;86.77;;
19780;SDS011;10050;55.492;13.506;2022-12-20T15:53:09;145.53;;;87.03;;
19780;SDS011;10050;55.492;13.506;2022-12-20T15:55:39;68.60;;;39.87;;
19780;SDS011;10050;55.492;13.506;2022-12-20T15:58:05;62.80;;;46.70;;
19780;SDS011;10050;55.492;13.506;2022-12-20T16:00:30;60.17;;;49.03;;
19780;SDS011;10050;55.492;13.506;2022-12-20T16:02:56;60.87;;;51.10;;
19780;SDS011;10050;55.492;13.506;2022-12-20T16:05:23;45.93;;;27.67;;
19780;SDS011;10050;55.492;13.506;2022-12-20T16:07:48;38.53;;;33.73;;
19780;SDS011;10050;55.492;13.506;2022-12-20T16:10:14;36.77;;;27.40;;
19780;SDS011;10050;55.492;13.506;2022-12-20T16:12:40;35.23;;;20.27;;
19780;SDS011;10050;55.492;13.506;2022-12-20T16:15:27;34.97;;;19.00;;
19780;SDS011;10050;55.492;13.506;2022-12-20T16:17:52;30.33;;;17.73;;
19780;SDS011;10050;55.492;13.506;2022-12-20T16:20:18;29.83;;;17.83;;
19780;SDS011;10050;55.492;13.506;2022-12-20T16:22:43;32.50;;;17.77;;
19780;SDS011;10050;55.492;13.506;2022-12-20T16:25:19;28.00;;;17.00;;
19780;SDS011;10050;55.492;13.506;2022-12-20T16:27:52;28.17;;;16.90;;
19780;SDS011;10050;55.492;13.506;2022-12-20T16:30:17;32.43;;;16.23;;
19780;SDS011;10050;55.492;13.506;2022-12-20T16:32:43;25.27;;;16.10;;
19780;SDS011;10050;55.492;13.506;2022-12-20T16:37:49;29.57;;;15.63;;
19780;SDS011;10050;55.492;13.506;2022-12-20T16:40:14;25.33;;;14.60;;
19780;SDS011;10050;55.492;13.506;2022-12-20T16:42:40;27.10;;;14.83;;
19780;SDS011;10050;55.492;13.506;2022-12-20T16:45:10;25.47;;;15.13;;
19780;SDS011;10050;55.492;13.506;2022-12-20T16:47:40;24.33;;;14.60;;
19780;SDS011;10050;55.492;13.506;2022-12-20T16:50:06;26.60;;;14.90;;
19780;SDS011;10050;55.492;13.506;2022-12-20T16:52:32;28.63;;;15.17;;